AFR92KK GMME-LFPG
Flight info
| Callsign | AFR92KK |
|---|---|
| Flight time | N/A |
| Altitude | 34000 |
| Route | TOLSI UG5 KORIS DCT SVL/N0442F360 DCT HIJ DCT RUSEM DCT SOTUK DCT USOKO DCT TLD DCT SIE DCT EDIGO DCT DGO L176 LUSEM DCT LULUT DCT POI/N0420F300 DCT PEPAX UT182 KEPER |
| Aircraft | A320/M-SDE2E3FGIJ1RWY/HB1 |
Departure
| Time | 2026-05-05 16:29 |
|---|---|
| Airport | Rabat-Salé Airport (GMME) |
Arrival
| Time | N/A |
|---|---|
| Airport | Charles de Gaulle International Airport (LFPG) |
| Time | Latitude | Longitude | Altitude | Speed | Heading |
|---|---|---|---|---|---|
| 2026-05-05 16:21 | 34.03725 | -6.74926 | 268 ft | 4 kts | 158° |
| 2026-05-05 16:22 | 34.03799 | -6.74964 | 268 ft | 4 kts | 169° |
| 2026-05-05 16:22 | 34.03820 | -6.74960 | 268 ft | 0 kts | 242° |
| 2026-05-05 16:24 | 34.03819 | -6.74963 | 268 ft | 2 kts | 242° |
| 2026-05-05 16:24 | 34.03808 | -6.75002 | 268 ft | 8 kts | 260° |
| 2026-05-05 16:24 | 34.03871 | -6.75162 | 268 ft | 12 kts | 302° |
| 2026-05-05 16:25 | 34.03918 | -6.75254 | 268 ft | 13 kts | 302° |
| 2026-05-05 16:25 | 34.04021 | -6.75460 | 268 ft | 15 kts | 301° |
| 2026-05-05 16:25 | 34.04076 | -6.75573 | 268 ft | 16 kts | 301° |
| 2026-05-05 16:26 | 34.03984 | -6.75746 | 269 ft | 14 kts | 210° |
| 2026-05-05 16:26 | 34.03847 | -6.75845 | 269 ft | 9 kts | 212° |
| 2026-05-05 16:27 | 34.03798 | -6.75883 | 269 ft | 7 kts | 212° |
| 2026-05-05 16:27 | 34.03754 | -6.75916 | 269 ft | 7 kts | 212° |
| 2026-05-05 16:27 | 34.03718 | -6.75956 | 270 ft | 9 kts | 240° |
| 2026-05-05 16:27 | 34.03741 | -6.76048 | 274 ft | 12 kts | 309° |
| 2026-05-05 16:28 | 34.03800 | -6.76093 | 276 ft | 9 kts | 336° |
| 2026-05-05 16:28 | 34.03885 | -6.76076 | 277 ft | 22 kts | 31° |
| 2026-05-05 16:28 | 34.04176 | -6.75862 | 269 ft | 82 kts | 31° |
| 2026-05-05 16:28 | 34.04838 | -6.75380 | 262 ft | 138 kts | 31° |
| 2026-05-05 16:29 | 34.05785 | -6.74690 | 364 ft | 171 kts | 29° |
| 2026-05-05 16:29 | 34.06774 | -6.73969 | 1022 ft | 166 kts | 29° |
| 2026-05-05 16:29 | 34.07760 | -6.73235 | 1700 ft | 167 kts | 29° |
| 2026-05-05 16:29 | 34.08752 | -6.72507 | 2338 ft | 167 kts | 28° |
| 2026-05-05 16:30 | 34.09745 | -6.71783 | 2897 ft | 167 kts | 28° |
| 2026-05-05 16:30 | 34.10739 | -6.71057 | 3431 ft | 168 kts | 27° |
| 2026-05-05 16:30 | 34.11876 | -6.70669 | 3709 ft | 179 kts | 347° |
| 2026-05-05 16:30 | 34.12938 | -6.71491 | 3917 ft | 196 kts | 301° |
| 2026-05-05 16:31 | 34.13509 | -6.73093 | 4144 ft | 219 kts | 296° |
| 2026-05-05 16:31 | 34.14458 | -6.74635 | 4426 ft | 241 kts | 316° |
| 2026-05-05 16:31 | 34.15797 | -6.75996 | 4833 ft | 259 kts | 322° |
| 2026-05-05 16:31 | 34.17276 | -6.77296 | 5524 ft | 265 kts | 323° |
| 2026-05-05 16:32 | 34.18793 | -6.78605 | 6267 ft | 270 kts | 323° |
| 2026-05-05 16:32 | 34.20284 | -6.79917 | 6985 ft | 275 kts | 322° |
| 2026-05-05 16:32 | 34.21870 | -6.81346 | 7764 ft | 278 kts | 321° |
| 2026-05-05 16:32 | 34.23418 | -6.82769 | 8501 ft | 282 kts | 321° |
| 2026-05-05 16:33 | 34.25003 | -6.84188 | 9210 ft | 286 kts | 327° |
| 2026-05-05 16:33 | 34.26810 | -6.85241 | 9907 ft | 291 kts | 336° |
| 2026-05-05 16:33 | 34.28703 | -6.86161 | 10603 ft | 294 kts | 336° |
| 2026-05-05 16:33 | 34.30613 | -6.87090 | 11288 ft | 297 kts | 335° |
| 2026-05-05 16:34 | 34.32547 | -6.88030 | 11962 ft | 301 kts | 335° |
| 2026-05-05 16:34 | 34.34493 | -6.88980 | 12628 ft | 303 kts | 334° |
| 2026-05-05 16:34 | 34.36433 | -6.89929 | 13267 ft | 306 kts | 334° |
| 2026-05-05 16:34 | 34.38416 | -6.90900 | 13896 ft | 309 kts | 334° |
| 2026-05-05 16:35 | 34.40419 | -6.91881 | 14504 ft | 312 kts | 334° |
| 2026-05-05 16:35 | 34.42436 | -6.92869 | 15099 ft | 314 kts | 333° |
| 2026-05-05 16:35 | 34.44474 | -6.93865 | 15685 ft | 317 kts | 333° |
| 2026-05-05 16:35 | 34.46530 | -6.94869 | 16258 ft | 320 kts | 333° |
| 2026-05-05 16:36 | 34.48600 | -6.95885 | 16818 ft | 322 kts | 333° |
| 2026-05-05 16:36 | 34.50686 | -6.96909 | 17366 ft | 325 kts | 333° |
| 2026-05-05 16:36 | 34.52791 | -6.97944 | 17895 ft | 328 kts | 333° |
| 2026-05-05 16:36 | 34.54914 | -6.98988 | 18424 ft | 331 kts | 333° |
| 2026-05-05 16:37 | 34.57068 | -7.00003 | 18936 ft | 336 kts | 338° |
| 2026-05-05 16:37 | 34.59400 | -7.00477 | 19429 ft | 346 kts | 354° |
| 2026-05-05 16:37 | 34.61849 | -7.00163 | 19720 ft | 364 kts | 11° |
| 2026-05-05 16:37 | 34.64256 | -6.98985 | 19855 ft | 383 kts | 24° |
| 2026-05-05 16:38 | 34.66675 | -6.97490 | 19986 ft | 397 kts | 24° |
| 2026-05-05 16:38 | 34.69176 | -6.95948 | 20102 ft | 410 kts | 24° |
| 2026-05-05 16:38 | 34.71746 | -6.94364 | 20349 ft | 418 kts | 24° |
| 2026-05-05 16:38 | 34.74358 | -6.92755 | 20731 ft | 422 kts | 24° |
| 2026-05-05 16:39 | 34.76984 | -6.91137 | 21143 ft | 425 kts | 23° |
| 2026-05-05 16:39 | 34.79632 | -6.89507 | 21543 ft | 428 kts | 23° |
| 2026-05-05 16:39 | 34.82301 | -6.87865 | 21943 ft | 431 kts | 23° |
| 2026-05-05 16:39 | 34.84987 | -6.86209 | 22332 ft | 434 kts | 23° |
| 2026-05-05 16:40 | 34.87687 | -6.84547 | 22717 ft | 437 kts | 23° |
| 2026-05-05 16:40 | 34.90407 | -6.82876 | 23091 ft | 439 kts | 23° |
| 2026-05-05 16:40 | 34.93108 | -6.81214 | 23461 ft | 442 kts | 23° |
| 2026-05-05 16:40 | 34.95856 | -6.79520 | 23806 ft | 444 kts | 23° |
| 2026-05-05 16:41 | 34.98659 | -6.77789 | 24147 ft | 447 kts | 23° |
| 2026-05-05 16:41 | 35.01439 | -6.76069 | 24477 ft | 450 kts | 23° |
| 2026-05-05 16:41 | 35.04203 | -6.74357 | 24807 ft | 452 kts | 23° |
| 2026-05-05 16:41 | 35.07017 | -6.72613 | 25123 ft | 454 kts | 23° |
| 2026-05-05 16:42 | 35.09842 | -6.70860 | 25430 ft | 457 kts | 23° |
| 2026-05-05 16:42 | 35.12678 | -6.69098 | 25743 ft | 459 kts | 22° |
| 2026-05-05 16:42 | 35.15533 | -6.67327 | 26046 ft | 461 kts | 22° |
| 2026-05-05 16:42 | 35.18405 | -6.65548 | 26348 ft | 463 kts | 22° |
| 2026-05-05 16:43 | 35.21285 | -6.63763 | 26635 ft | 465 kts | 22° |
| 2026-05-05 16:43 | 35.24178 | -6.61965 | 26932 ft | 467 kts | 22° |
| 2026-05-05 16:43 | 35.27079 | -6.60154 | 27216 ft | 469 kts | 22° |
| 2026-05-05 16:43 | 35.29990 | -6.58331 | 27494 ft | 471 kts | 22° |
| 2026-05-05 16:44 | 35.32916 | -6.56503 | 27761 ft | 473 kts | 22° |
| 2026-05-05 16:44 | 35.35855 | -6.54674 | 28037 ft | 475 kts | 22° |
| 2026-05-05 16:44 | 35.38809 | -6.52836 | 28304 ft | 477 kts | 22° |
| 2026-05-05 16:44 | 35.41769 | -6.50993 | 28564 ft | 478 kts | 22° |
| 2026-05-05 16:45 | 35.44747 | -6.49136 | 28812 ft | 480 kts | 22° |
| 2026-05-05 16:45 | 35.47684 | -6.47277 | 29041 ft | 482 kts | 23° |
| 2026-05-05 16:45 | 35.50657 | -6.45351 | 29279 ft | 484 kts | 24° |
| 2026-05-05 16:45 | 35.53634 | -6.43389 | 29509 ft | 486 kts | 24° |
| 2026-05-05 16:46 | 35.56610 | -6.41416 | 29733 ft | 487 kts | 24° |
| 2026-05-05 16:46 | 35.59500 | -6.39501 | 29954 ft | 488 kts | 24° |
| 2026-05-05 16:46 | 35.62601 | -6.37455 | 30181 ft | 490 kts | 24° |
| 2026-05-05 16:46 | 35.65604 | -6.35482 | 30487 ft | 489 kts | 24° |
| 2026-05-05 16:47 | 35.68606 | -6.33517 | 30815 ft | 487 kts | 24° |
| 2026-05-05 16:47 | 35.71599 | -6.31564 | 31107 ft | 487 kts | 24° |
| 2026-05-05 16:47 | 35.74595 | -6.29608 | 31393 ft | 486 kts | 24° |
| 2026-05-05 16:47 | 35.77581 | -6.27662 | 31661 ft | 485 kts | 24° |
| 2026-05-05 16:48 | 35.80569 | -6.25721 | 31933 ft | 485 kts | 23° |
| 2026-05-05 16:48 | 35.83632 | -6.24036 | 32189 ft | 480 kts | 15° |
| 2026-05-05 16:48 | 35.86820 | -6.22892 | 32436 ft | 475 kts | 8° |
| 2026-05-05 16:48 | 35.90037 | -6.21962 | 32691 ft | 474 kts | 8° |
| 2026-05-05 16:49 | 35.93211 | -6.21038 | 32940 ft | 474 kts | 8° |
| 2026-05-05 16:49 | 35.96417 | -6.20095 | 33189 ft | 474 kts | 8° |
| 2026-05-05 16:49 | 35.99623 | -6.19146 | 33428 ft | 474 kts | 8° |
| 2026-05-05 16:49 | 36.02827 | -6.18194 | 33664 ft | 473 kts | 8° |
| 2026-05-05 16:50 | 36.06033 | -6.17246 | 33907 ft | 473 kts | 8° |
| 2026-05-05 16:50 | 36.09236 | -6.16301 | 34132 ft | 473 kts | 8° |
| 2026-05-05 16:50 | 36.12435 | -6.15359 | 34369 ft | 472 kts | 8° |
| 2026-05-05 16:50 | 36.15635 | -6.14417 | 34601 ft | 472 kts | 8° |
| 2026-05-05 16:51 | 36.18828 | -6.13476 | 34814 ft | 472 kts | 8° |
| 2026-05-05 16:51 | 36.22019 | -6.12533 | 35044 ft | 471 kts | 8° |
| 2026-05-05 16:51 | 36.25207 | -6.11593 | 35294 ft | 470 kts | 8° |
| 2026-05-05 16:51 | 36.28385 | -6.10656 | 35535 ft | 468 kts | 8° |
| 2026-05-05 16:52 | 36.31542 | -6.09721 | 35784 ft | 467 kts | 8° |
| 2026-05-05 16:52 | 36.34653 | -6.08794 | 35970 ft | 466 kts | 8° |
| 2026-05-05 16:52 | 36.40978 | -6.06905 | 36018 ft | 467 kts | 8° |
| 2026-05-05 16:53 | 36.47295 | -6.05018 | 36013 ft | 467 kts | 7° |
| 2026-05-05 16:53 | 36.53619 | -6.03143 | 36002 ft | 467 kts | 7° |
| 2026-05-05 16:54 | 36.59949 | -6.01259 | 36002 ft | 468 kts | 7° |
| 2026-05-05 16:54 | 36.66280 | -5.99366 | 35997 ft | 468 kts | 7° |
| 2026-05-05 16:55 | 36.72607 | -5.97467 | 36004 ft | 468 kts | 7° |
| 2026-05-05 16:55 | 36.78931 | -5.95567 | 36006 ft | 467 kts | 7° |
| 2026-05-05 16:56 | 36.85218 | -5.93680 | 36002 ft | 467 kts | 7° |
| 2026-05-05 16:56 | 36.91519 | -5.91785 | 36005 ft | 468 kts | 7° |
| 2026-05-05 16:57 | 36.97869 | -5.89871 | 36002 ft | 467 kts | 7° |
| 2026-05-05 16:57 | 37.04189 | -5.87959 | 35996 ft | 468 kts | 7° |
| 2026-05-05 16:58 | 37.10516 | -5.86038 | 36001 ft | 467 kts | 7° |
| 2026-05-05 16:58 | 37.16838 | -5.84122 | 35992 ft | 468 kts | 7° |
| 2026-05-05 16:59 | 37.23162 | -5.82204 | 35992 ft | 468 kts | 6° |
| 2026-05-05 16:59 | 37.29447 | -5.80287 | 35996 ft | 468 kts | 6° |
| 2026-05-05 17:00 | 37.35781 | -5.78357 | 35994 ft | 468 kts | 6° |
| 2026-05-05 17:00 | 37.42097 | -5.76356 | 35984 ft | 472 kts | 12° |
| 2026-05-05 17:01 | 37.48170 | -5.72968 | 35987 ft | 479 kts | 19° |
| 2026-05-05 17:01 | 37.54175 | -5.69326 | 35982 ft | 479 kts | 19° |
| 2026-05-05 17:02 | 37.60183 | -5.65684 | 35982 ft | 479 kts | 19° |
| 2026-05-05 17:02 | 37.66166 | -5.62056 | 35980 ft | 480 kts | 19° |
| 2026-05-05 17:03 | 37.72187 | -5.58408 | 35982 ft | 480 kts | 19° |
| 2026-05-05 17:03 | 37.78196 | -5.54745 | 35980 ft | 480 kts | 19° |
| 2026-05-05 17:04 | 37.84205 | -5.51072 | 35980 ft | 480 kts | 19° |
| 2026-05-05 17:04 | 37.90219 | -5.47405 | 35973 ft | 479 kts | 19° |
| 2026-05-05 17:05 | 37.96231 | -5.43718 | 35974 ft | 479 kts | 19° |
| 2026-05-05 17:05 | 38.02086 | -5.40124 | 35973 ft | 480 kts | 19° |
| 2026-05-05 17:06 | 38.08087 | -5.36438 | 35968 ft | 479 kts | 19° |
| 2026-05-05 17:06 | 38.14022 | -5.32788 | 35967 ft | 480 kts | 19° |
| 2026-05-05 17:07 | 38.20061 | -5.29067 | 35966 ft | 480 kts | 19° |
| 2026-05-05 17:07 | 38.26060 | -5.25350 | 35964 ft | 480 kts | 19° |
| 2026-05-05 17:08 | 38.31094 | -5.22231 | 35965 ft | 479 kts | 19° |
| 2026-05-05 17:08 | 38.37051 | -5.18538 | 35966 ft | 479 kts | 19° |
| 2026-05-05 17:09 | 38.43054 | -5.14805 | 35964 ft | 479 kts | 19° |
| 2026-05-05 17:09 | 38.49041 | -5.11082 | 35961 ft | 479 kts | 19° |
| 2026-05-05 17:10 | 38.55093 | -5.07562 | 35962 ft | 476 kts | 15° |
| 2026-05-05 17:10 | 38.61243 | -5.04489 | 35966 ft | 474 kts | 13° |
| 2026-05-05 17:11 | 38.67411 | -5.01494 | 35967 ft | 474 kts | 14° |
| 2026-05-05 17:11 | 38.73559 | -4.98383 | 35965 ft | 475 kts | 14° |
| 2026-05-05 17:12 | 38.79685 | -4.95204 | 35965 ft | 475 kts | 15° |
| 2026-05-05 17:12 | 38.85773 | -4.92036 | 35977 ft | 475 kts | 14° |
| 2026-05-05 17:13 | 38.91937 | -4.88860 | 35975 ft | 474 kts | 14° |
| 2026-05-05 17:13 | 38.98022 | -4.85723 | 35975 ft | 474 kts | 14° |
| 2026-05-05 17:14 | 39.04146 | -4.82561 | 35973 ft | 474 kts | 14° |
| 2026-05-05 17:14 | 39.10245 | -4.79400 | 35972 ft | 474 kts | 15° |
| 2026-05-05 17:15 | 39.16359 | -4.76214 | 35965 ft | 474 kts | 15° |
| 2026-05-05 17:15 | 39.22467 | -4.73030 | 35961 ft | 474 kts | 14° |
| 2026-05-05 17:16 | 39.28582 | -4.69842 | 35961 ft | 474 kts | 14° |
| 2026-05-05 17:16 | 39.34695 | -4.66654 | 35964 ft | 474 kts | 15° |
| 2026-05-05 17:17 | 39.40822 | -4.63446 | 35965 ft | 474 kts | 15° |
| 2026-05-05 17:17 | 39.46939 | -4.60239 | 35964 ft | 474 kts | 15° |
| 2026-05-05 17:18 | 39.53066 | -4.57022 | 35966 ft | 475 kts | 15° |
| 2026-05-05 17:18 | 39.59193 | -4.53788 | 35967 ft | 476 kts | 15° |
| 2026-05-05 17:19 | 39.65279 | -4.50566 | 35967 ft | 475 kts | 15° |
| 2026-05-05 17:19 | 39.71405 | -4.47327 | 35968 ft | 475 kts | 15° |
| 2026-05-05 17:20 | 39.77533 | -4.44099 | 35969 ft | 476 kts | 14° |
| 2026-05-05 17:20 | 39.83671 | -4.40841 | 35973 ft | 477 kts | 15° |
| 2026-05-05 17:21 | 39.89813 | -4.37557 | 35978 ft | 477 kts | 15° |
| 2026-05-05 17:22 | 39.99014 | -4.32585 | 35974 ft | 478 kts | 16° |
| 2026-05-05 17:22 | 40.05079 | -4.28950 | 35968 ft | 481 kts | 19° |
| 2026-05-05 17:23 | 40.11119 | -4.25149 | 35972 ft | 481 kts | 19° |
| 2026-05-05 17:23 | 40.17164 | -4.21391 | 35973 ft | 481 kts | 18° |
| 2026-05-05 17:24 | 40.23219 | -4.17690 | 35974 ft | 481 kts | 18° |
| 2026-05-05 17:24 | 40.29287 | -4.13992 | 35977 ft | 481 kts | 18° |
| 2026-05-05 17:25 | 40.35342 | -4.10277 | 35980 ft | 481 kts | 18° |
| 2026-05-05 17:25 | 40.41339 | -4.06573 | 35987 ft | 481 kts | 18° |
| 2026-05-05 17:26 | 40.47383 | -4.02834 | 35979 ft | 480 kts | 18° |
| 2026-05-05 17:26 | 40.53418 | -3.99098 | 35978 ft | 479 kts | 18° |
| 2026-05-05 17:27 | 40.59460 | -3.95364 | 35967 ft | 480 kts | 18° |
| 2026-05-05 17:27 | 40.65505 | -3.91616 | 35964 ft | 481 kts | 19° |
| 2026-05-05 17:28 | 40.71547 | -3.87852 | 35967 ft | 480 kts | 19° |
| 2026-05-05 17:28 | 40.77583 | -3.84075 | 35969 ft | 480 kts | 19° |
| 2026-05-05 17:29 | 40.83625 | -3.80295 | 35969 ft | 480 kts | 19° |
| 2026-05-05 17:29 | 40.89637 | -3.76538 | 35976 ft | 481 kts | 19° |
| 2026-05-05 17:30 | 40.95676 | -3.72753 | 35980 ft | 480 kts | 19° |
| 2026-05-05 17:30 | 41.01714 | -3.68960 | 35984 ft | 481 kts | 20° |
| 2026-05-05 17:31 | 41.07759 | -3.65159 | 35985 ft | 481 kts | 20° |
| 2026-05-05 17:31 | 41.13798 | -3.61344 | 35980 ft | 480 kts | 20° |
| 2026-05-05 17:32 | 41.19876 | -3.57705 | 35991 ft | 478 kts | 17° |
| 2026-05-05 17:32 | 41.26045 | -3.54415 | 35989 ft | 477 kts | 16° |
| 2026-05-05 17:33 | 41.32218 | -3.51184 | 35989 ft | 476 kts | 17° |
| 2026-05-05 17:33 | 41.38323 | -3.47879 | 35985 ft | 476 kts | 17° |
| 2026-05-05 17:34 | 41.44437 | -3.44487 | 35982 ft | 476 kts | 18° |
| 2026-05-05 17:34 | 41.50559 | -3.41097 | 35990 ft | 476 kts | 17° |
| 2026-05-05 17:35 | 41.56679 | -3.37728 | 35993 ft | 476 kts | 18° |
| 2026-05-05 17:35 | 41.62802 | -3.34357 | 35995 ft | 476 kts | 18° |
| 2026-05-05 17:36 | 41.68903 | -3.30980 | 36002 ft | 476 kts | 18° |
| 2026-05-05 17:36 | 41.75032 | -3.27581 | 36011 ft | 476 kts | 18° |
| 2026-05-05 17:37 | 41.81117 | -3.24201 | 36012 ft | 477 kts | 18° |
| 2026-05-05 17:37 | 41.87241 | -3.20784 | 36013 ft | 477 kts | 18° |
| 2026-05-05 17:38 | 41.93372 | -3.17362 | 36015 ft | 477 kts | 18° |
| 2026-05-05 17:38 | 41.99507 | -3.13931 | 36016 ft | 477 kts | 18° |
| 2026-05-05 17:39 | 42.05634 | -3.10509 | 36027 ft | 476 kts | 19° |
| 2026-05-05 17:39 | 42.11751 | -3.07076 | 36031 ft | 475 kts | 19° |
| 2026-05-05 17:40 | 42.17837 | -3.03638 | 36029 ft | 475 kts | 19° |
| 2026-05-05 17:40 | 42.23931 | -3.00197 | 36027 ft | 474 kts | 19° |
| 2026-05-05 17:41 | 42.29982 | -2.96785 | 36031 ft | 474 kts | 19° |
| 2026-05-05 17:41 | 42.36073 | -2.93340 | 36030 ft | 474 kts | 19° |
| 2026-05-05 17:42 | 42.42157 | -2.89875 | 36030 ft | 475 kts | 20° |
| 2026-05-05 17:42 | 42.47791 | -2.85113 | 36026 ft | 481 kts | 39° |
| 2026-05-05 17:43 | 42.52805 | -2.79079 | 36030 ft | 483 kts | 39° |
| 2026-05-05 17:43 | 42.57829 | -2.73037 | 36028 ft | 483 kts | 39° |
| 2026-05-05 17:44 | 42.62855 | -2.66972 | 36026 ft | 482 kts | 39° |
| 2026-05-05 17:44 | 42.67861 | -2.60908 | 36022 ft | 482 kts | 39° |
| 2026-05-05 17:45 | 42.72868 | -2.54831 | 36021 ft | 483 kts | 40° |
| 2026-05-05 17:45 | 42.77865 | -2.48748 | 36017 ft | 482 kts | 40° |
| 2026-05-05 17:46 | 42.82866 | -2.42646 | 36020 ft | 483 kts | 40° |
| 2026-05-05 17:46 | 42.87878 | -2.36526 | 36027 ft | 483 kts | 40° |
| 2026-05-05 17:47 | 42.92843 | -2.30440 | 36026 ft | 483 kts | 40° |
| 2026-05-05 17:47 | 42.97868 | -2.24262 | 36025 ft | 483 kts | 40° |
| 2026-05-05 17:48 | 43.02861 | -2.18115 | 36025 ft | 483 kts | 40° |
| 2026-05-05 17:48 | 43.07807 | -2.12013 | 36029 ft | 482 kts | 40° |
| 2026-05-05 17:49 | 43.12779 | -2.05861 | 36027 ft | 482 kts | 40° |
| 2026-05-05 17:49 | 43.17744 | -1.99707 | 36022 ft | 481 kts | 41° |
| 2026-05-05 17:50 | 43.22698 | -1.93550 | 36018 ft | 481 kts | 41° |
| 2026-05-05 17:50 | 43.27649 | -1.87384 | 36017 ft | 480 kts | 41° |
| 2026-05-05 17:51 | 43.32856 | -1.81679 | 36014 ft | 477 kts | 28° |
| 2026-05-05 17:51 | 43.38609 | -1.77136 | 36007 ft | 477 kts | 29° |
| 2026-05-05 17:52 | 43.44210 | -1.72247 | 36003 ft | 477 kts | 32° |
| 2026-05-05 17:52 | 43.49710 | -1.67121 | 35998 ft | 477 kts | 33° |
| 2026-05-05 17:53 | 43.55219 | -1.62008 | 35999 ft | 477 kts | 32° |
| 2026-05-05 17:53 | 43.59818 | -1.57820 | 36000 ft | 477 kts | 32° |
| 2026-05-05 17:54 | 43.65370 | -1.52813 | 36004 ft | 477 kts | 32° |
| 2026-05-05 17:54 | 43.70913 | -1.47792 | 36003 ft | 476 kts | 32° |
| 2026-05-05 17:55 | 43.76442 | -1.42737 | 35998 ft | 476 kts | 32° |
| 2026-05-05 17:55 | 43.81960 | -1.37675 | 35994 ft | 476 kts | 32° |
| 2026-05-05 17:56 | 43.87485 | -1.32605 | 35982 ft | 476 kts | 32° |
| 2026-05-05 17:56 | 43.93010 | -1.27527 | 35979 ft | 476 kts | 32° |
| 2026-05-05 17:57 | 43.98529 | -1.22443 | 35977 ft | 476 kts | 32° |
| 2026-05-05 17:57 | 44.04036 | -1.17354 | 35983 ft | 476 kts | 33° |
| 2026-05-05 17:58 | 44.09543 | -1.12256 | 35993 ft | 474 kts | 33° |
| 2026-05-05 17:58 | 44.15023 | -1.07169 | 35987 ft | 473 kts | 33° |
| 2026-05-05 17:59 | 44.20455 | -1.02121 | 35985 ft | 472 kts | 33° |
| 2026-05-05 17:59 | 44.25915 | -0.97040 | 35974 ft | 472 kts | 33° |
| 2026-05-05 18:00 | 44.31371 | -0.91948 | 35974 ft | 472 kts | 33° |
| 2026-05-05 18:00 | 44.36815 | -0.86850 | 35976 ft | 471 kts | 33° |
| 2026-05-05 18:01 | 44.42567 | -0.82621 | 35973 ft | 468 kts | 18° |
| 2026-05-05 18:01 | 44.48696 | -0.79566 | 35969 ft | 468 kts | 18° |
| 2026-05-05 18:02 | 44.54817 | -0.76493 | 35968 ft | 467 kts | 18° |
| 2026-05-05 18:02 | 44.60935 | -0.73401 | 35965 ft | 467 kts | 19° |
| 2026-05-05 18:03 | 44.67040 | -0.70314 | 35961 ft | 466 kts | 19° |
| 2026-05-05 18:03 | 44.73144 | -0.67223 | 35954 ft | 466 kts | 19° |
| 2026-05-05 18:04 | 44.79253 | -0.64123 | 35952 ft | 466 kts | 19° |
| 2026-05-05 18:04 | 44.85349 | -0.61028 | 35950 ft | 465 kts | 19° |
| 2026-05-05 18:05 | 44.91438 | -0.57936 | 35945 ft | 465 kts | 19° |
| 2026-05-05 18:05 | 44.97482 | -0.54846 | 35943 ft | 465 kts | 19° |
| 2026-05-05 18:06 | 45.03558 | -0.51734 | 35941 ft | 464 kts | 19° |
| 2026-05-05 18:06 | 45.09636 | -0.48618 | 35941 ft | 464 kts | 19° |
| 2026-05-05 18:07 | 45.15713 | -0.45499 | 35943 ft | 464 kts | 19° |
| 2026-05-05 18:07 | 45.21777 | -0.42370 | 35938 ft | 464 kts | 19° |
| 2026-05-05 18:08 | 45.27832 | -0.39238 | 35951 ft | 462 kts | 19° |
| 2026-05-05 18:08 | 45.33868 | -0.36116 | 35955 ft | 461 kts | 19° |
| 2026-05-05 18:09 | 45.39883 | -0.32998 | 35952 ft | 459 kts | 19° |
| 2026-05-05 18:09 | 45.45876 | -0.29878 | 35945 ft | 458 kts | 19° |
| 2026-05-05 18:10 | 45.51826 | -0.26778 | 35940 ft | 458 kts | 19° |
| 2026-05-05 18:10 | 45.57814 | -0.23656 | 35937 ft | 458 kts | 19° |
| 2026-05-05 18:11 | 45.63786 | -0.20520 | 35934 ft | 457 kts | 20° |
| 2026-05-05 18:11 | 45.69764 | -0.17382 | 35928 ft | 457 kts | 19° |
| 2026-05-05 18:12 | 45.75736 | -0.14258 | 35822 ft | 456 kts | 19° |
| 2026-05-05 18:12 | 45.78721 | -0.12699 | 35924 ft | 458 kts | 20° |
| 2026-05-05 18:12 | 45.81716 | -0.11118 | 35930 ft | 459 kts | 20° |
| 2026-05-05 18:13 | 45.87703 | -0.07942 | 35931 ft | 458 kts | 20° |
| 2026-05-05 18:13 | 45.93682 | -0.04771 | 35929 ft | 458 kts | 20° |
| 2026-05-05 18:14 | 45.99653 | -0.01601 | 35928 ft | 457 kts | 20° |
| 2026-05-05 18:14 | 46.05583 | 0.01557 | 35930 ft | 457 kts | 20° |
| 2026-05-05 18:15 | 46.11559 | 0.04745 | 35896 ft | 459 kts | 20° |
| 2026-05-05 18:15 | 46.17562 | 0.07950 | 35891 ft | 461 kts | 20° |
| 2026-05-05 18:16 | 46.23578 | 0.11173 | 35891 ft | 462 kts | 20° |
| 2026-05-05 18:16 | 46.29615 | 0.14408 | 35891 ft | 463 kts | 20° |
| 2026-05-05 18:17 | 46.35651 | 0.17642 | 35892 ft | 463 kts | 20° |
| 2026-05-05 18:17 | 46.41654 | 0.20888 | 35889 ft | 463 kts | 20° |
| 2026-05-05 18:18 | 46.47693 | 0.24159 | 35890 ft | 463 kts | 20° |
| 2026-05-05 18:18 | 46.53724 | 0.27440 | 35898 ft | 463 kts | 21° |
| 2026-05-05 18:19 | 46.59840 | 0.30353 | 35902 ft | 463 kts | 11° |
| 2026-05-05 18:19 | 46.66148 | 0.32269 | 35902 ft | 463 kts | 12° |
| 2026-05-05 18:20 | 46.72446 | 0.34200 | 35908 ft | 462 kts | 12° |
| 2026-05-05 18:20 | 46.78735 | 0.36140 | 35910 ft | 462 kts | 12° |
| 2026-05-05 18:21 | 46.85017 | 0.38084 | 35907 ft | 461 kts | 12° |
| 2026-05-05 18:21 | 46.91299 | 0.40017 | 35825 ft | 463 kts | 12° |
| 2026-05-05 18:21 | 46.94459 | 0.40990 | 35572 ft | 464 kts | 12° |
| 2026-05-05 18:22 | 46.97552 | 0.41946 | 35327 ft | 463 kts | 12° |
| 2026-05-05 18:22 | 47.00692 | 0.42923 | 35077 ft | 461 kts | 12° |
| 2026-05-05 18:22 | 47.03817 | 0.43895 | 34824 ft | 458 kts | 12° |
| 2026-05-05 18:22 | 47.06829 | 0.44627 | 34589 ft | 455 kts | 5° |
| 2026-05-05 18:23 | 47.10106 | 0.44665 | 34328 ft | 453 kts | 355° |
| 2026-05-05 18:23 | 47.13219 | 0.44028 | 34074 ft | 451 kts | 351° |
| 2026-05-05 18:23 | 47.16292 | 0.43279 | 33825 ft | 448 kts | 351° |
| 2026-05-05 18:23 | 47.19360 | 0.42527 | 33575 ft | 446 kts | 351° |
| 2026-05-05 18:24 | 47.22405 | 0.41777 | 33326 ft | 443 kts | 351° |
| 2026-05-05 18:24 | 47.25433 | 0.41033 | 33032 ft | 439 kts | 351° |
| 2026-05-05 18:24 | 47.28425 | 0.40297 | 32602 ft | 434 kts | 352° |
| 2026-05-05 18:24 | 47.31414 | 0.39559 | 31684 ft | 440 kts | 352° |
| 2026-05-05 18:25 | 47.34446 | 0.38819 | 30823 ft | 445 kts | 353° |
| 2026-05-05 18:25 | 47.36480 | 0.38326 | 30476 ft | 442 kts | 353° |
| 2026-05-05 18:25 | 47.40502 | 0.37350 | 29929 ft | 435 kts | 353° |
| 2026-05-05 18:25 | 47.43483 | 0.36622 | 29679 ft | 433 kts | 353° |
| 2026-05-05 18:26 | 47.46404 | 0.35905 | 29432 ft | 431 kts | 353° |
| 2026-05-05 18:26 | 47.49392 | 0.35165 | 29179 ft | 428 kts | 353° |
| 2026-05-05 18:26 | 47.52286 | 0.34443 | 28933 ft | 426 kts | 353° |
| 2026-05-05 18:26 | 47.55196 | 0.33715 | 28548 ft | 422 kts | 353° |
| 2026-05-05 18:27 | 47.58073 | 0.33000 | 27999 ft | 419 kts | 353° |
| 2026-05-05 18:27 | 47.60942 | 0.32290 | 27447 ft | 416 kts | 353° |
| 2026-05-05 18:27 | 47.63787 | 0.31588 | 26910 ft | 413 kts | 353° |
| 2026-05-05 18:27 | 47.66614 | 0.30890 | 26371 ft | 410 kts | 353° |
| 2026-05-05 18:28 | 47.72195 | 0.29498 | 25326 ft | 404 kts | 352° |
| 2026-05-05 18:28 | 47.74956 | 0.28816 | 24819 ft | 400 kts | 354° |
| 2026-05-05 18:28 | 47.77707 | 0.28616 | 24342 ft | 393 kts | 5° |
| 2026-05-05 18:29 | 47.80389 | 0.29150 | 23872 ft | 386 kts | 15° |
| 2026-05-05 18:29 | 47.82930 | 0.30389 | 23564 ft | 388 kts | 26° |
| 2026-05-05 18:29 | 47.87155 | 0.34207 | 23005 ft | 390 kts | 37° |